Time;durP1;ratioP1;P1;durP2;ratioP2;P2;SDS_P1;SDS_P2;PMS_P1;PMS_P2;Temp;Humidity;BMP_temperature;BMP_pressure;BME280_temperature;BME280_humidity;BME280_pressure;Samples;Min_cycle;Max_cycle;Signal;HPM_P1;HPM_P2
2021/12/13 00:01:59;;;;;;;48.78;32.95;;;;;;;2.42;81.32;100713.27;1717623;82;21051;-68
2021/12/13 00:04:40;;;;;;;50.33;31.15;;;;;;;2.40;81.32;100707.24;1722447;83;20940;-68
2021/12/13 00:07:20;;;;;;;40.38;28.07;;;;;;;2.42;81.32;100706.30;1729479;83;21749;-68
2021/12/13 00:09:51;;;;;;;48.78;30.85;;;;;;;2.42;81.27;100702.38;1728932;82;21506;-68
2021/12/13 00:12:23;;;;;;;47.27;31.50;;;;;;;2.42;81.11;100704.14;1731934;81;21449;-68
2021/12/13 00:14:52;;;;;;;53.52;31.73;;;;;;;2.42;81.08;100691.11;1720916;83;21011;-68
2021/12/13 00:17:29;;;;;;;50.20;31.70;;;;;;;2.43;81.07;100691.50;1759114;81;21470;-68
2021/12/13 00:20:12;;;;;;;50.78;32.35;;;;;;;2.42;80.95;100686.73;1718490;83;21827;-67
2021/12/13 00:22:44;;;;;;;49.77;30.50;;;;;;;2.42;80.83;100699.77;1720834;83;21008;-67
2021/12/13 00:25:15;;;;;;;54.10;31.23;;;;;;;2.41;80.74;100697.20;1721313;83;21000;-67
2021/12/13 00:27:46;;;;;;;46.40;30.05;;;;;;;2.39;80.62;100692.06;1720654;83;21345;-67
2021/12/13 00:30:51;;;;;;;44.70;28.15;;;;;;;2.38;80.60;100689.52;1746356;81;20948;-67
2021/12/13 00:33:54;;;;;;;54.27;32.45;;;;;;;2.36;80.52;100683.06;1719069;82;20987;-68
2021/12/13 00:36:54;;;;;;;49.23;30.50;;;;;;;2.35;80.49;100694.41;1725149;81;21396;-68
2021/12/13 00:39:32;;;;;;;53.75;31.00;;;;;;;2.36;80.50;100691.34;1689308;84;20972;-67
2021/12/13 00:41:59;;;;;;;53.78;30.50;;;;;;;2.36;80.50;100690.89;1688664;84;21495;-70
2021/12/13 00:44:44;;;;;;;54.13;31.17;;;;;;;2.37;80.44;100675.64;1672381;82;21558;-67
2021/12/13 15:57:45;;;;;;;45.03;27.37;;;;;;;2.02;80.70;100700.48;1768430;80;21068;-71
2021/12/13 16:00:14;;;;;;;45.43;27.73;;;;;;;2.04;80.69;100708.27;1770033;80;21039;-70
2021/12/13 16:02:41;;;;;;;48.90;28.47;;;;;;;2.03;80.71;100706.54;1776119;80;21832;-71
2021/12/13 16:05:15;;;;;;;44.88;27.77;;;;;;;2.04;80.78;100696.09;1782157;80;20984;-72
2021/12/13 16:07:44;;;;;;;42.58;27.45;;;;;;;2.02;80.74;100696.58;1778238;80;21459;-69
2021/12/13 16:10:17;;;;;;;41.80;25.77;;;;;;;2.00;80.81;100692.73;1776814;80;21430;-70
2021/12/13 16:12:46;;;;;;;40.17;25.23;;;;;;;2.01;80.82;100685.77;1779842;79;21514;-69
2021/12/13 16:15:20;;;;;;;42.90;25.68;;;;;;;1.98;80.82;100681.98;1776187;79;21777;-68
2021/12/13 16:17:50;;;;;;;36.13;24.55;;;;;;;1.97;80.86;100693.31;1719127;82;20964;-70
2021/12/13 16:20:33;;;;;;;40.23;23.95;;;;;;;1.98;80.92;100687.20;1740378;80;21371;-69
2021/12/13 16:23:22;;;;;;;37.48;25.43;;;;;;;1.97;80.95;100683.74;1729006;82;22391;-69
2021/12/13 16:25:58;;;;;;;41.08;25.37;;;;;;;1.96;80.97;100680.75;1723200;82;20968;-68
2021/12/13 16:28:35;;;;;;;45.08;26.97;;;;;;;1.93;80.97;100678.69;1726144;80;21843;-71
2021/12/13 16:31:11;;;;;;;45.15;29.02;;;;;;;1.87;81.02;100678.50;1738853;80;21490;-69
2021/12/13 16:33:59;;;;;;;42.90;25.90;;;;;;;1.86;81.08;100674.20;1725929;83;20988;-68
2021/12/13 16:36:42;;;;;;;39.50;25.50;;;;;;;1.87;81.16;100675.89;1722686;81;27359;-67
2021/12/13 16:39:15;;;;;;;39.78;24.72;;;;;;;1.84;81.17;100676.48;1722307;83;21041;-66
2021/12/13 16:41:45;;;;;;;36.70;20.55;;;;;;;1.82;81.23;100671.75;1721517;83;21837;-67
2021/12/13 16:44:16;;;;;;;30.65;20.95;;;;;;;1.80;81.24;100670.52;1724659;82;20995;-66
2021/12/13 16:46:44;;;;;;;31.57;20.10;;;;;;;1.76;81.27;100676.77;1733687;82;21447;-66
2021/12/13 16:49:22;;;;;;;37.00;22.25;;;;;;;1.77;81.30;100678.91;1733543;82;20965;-65
2021/12/13 16:52:00;;;;;;;33.83;21.60;;;;;;;1.77;81.36;100672.41;1733898;82;20952;-66
2021/12/13 16:54:37;;;;;;;31.10;21.10;;;;;;;1.78;81.44;100670.19;1717272;83;22499;-66
2021/12/13 16:57:14;;;;;;;31.80;21.27;;;;;;;1.80;81.49;100670.97;1766643;81;21048;-66
2021/12/13 16:59:43;;;;;;;34.65;21.57;;;;;;;1.81;81.53;100670.91;1739080;82;21471;-67
2021/12/13 17:02:11;;;;;;;32.90;21.93;;;;;;;1.84;81.62;100673.88;1745073;82;21303;-66
2021/12/13 17:04:57;;;;;;;31.00;20.52;;;;;;;1.86;81.62;100673.35;1744101;81;20985;-66
2021/12/13 17:07:33;;;;;;;35.00;22.32;;;;;;;1.88;81.64;100676.73;1708520;82;21765;-66
2021/12/13 17:10:17;;;;;;;31.15;21.00;;;;;;;1.89;81.60;100685.80;1697645;84;21096;-66
2021/12/13 17:12:57;;;;;;;30.50;21.23;;;;;;;1.89;81.55;100687.09;1706621;82;21064;-66
2021/12/13 17:15:41;;;;;;;29.85;21.48;;;;;;;1.85;81.57;100686.83;1733349;80;22524;-66
2021/12/13 17:18:31;;;;;;;32.67;21.40;;;;;;;1.85;81.56;100695.10;1739435;81;20967;-66
2021/12/13 17:21:21;;;;;;;33.60;21.93;;;;;;;1.82;81.57;100699.10;1789258;80;22517;-66
2021/12/13 17:24:01;;;;;;;32.90;22.10;;;;;;;1.81;81.61;100706.52;1749434;81;20948;-67
2021/12/13 17:26:44;;;;;;;31.80;21.20;;;;;;;1.79;81.63;100713.09;1717234;81;20999;-66
2021/12/13 17:29:24;;;;;;;31.52;21.42;;;;;;;1.77;81.64;100708.41;1756410;81;21095;-66
2021/12/13 17:31:58;;;;;;;29.90;21.57;;;;;;;1.80;81.69;100716.55;1745996;81;20992;-67
2021/12/13 17:34:49;;;;;;;31.75;21.10;;;;;;;1.81;81.67;100718.24;1747661;79;27835;-68
2021/12/13 17:37:28;;;;;;;33.92;21.00;;;;;;;1.79;81.62;100715.70;1778729;79;21058;-66
2021/12/13 17:40:21;;;;;;;32.90;20.80;;;;;;;1.78;81.61;100723.58;1783884;80;20976;-66
2021/12/13 17:42:54;;;;;;;34.67;21.93;;;;;;;1.76;81.59;100720.19;1783963;80;21486;-66
2021/12/13 17:45:44;;;;;;;31.85;22.05;;;;;;;1.75;81.60;100723.70;1780800;79;21457;-66
2021/12/13 17:48:19;;;;;;;31.93;21.02;;;;;;;1.75;81.63;100729.76;1740540;82;21834;-66
2021/12/13 17:51:09;;;;;;;35.75;22.87;;;;;;;1.75;81.69;100732.81;1740896;82;21376;-66
2021/12/13 17:54:03;;;;;;;37.33;23.47;;;;;;;1.75;81.68;100739.33;1735732;81;21011;-66
2021/12/13 17:56:35;;;;;;;35.13;22.45;;;;;;;1.77;81.68;100739.66;1736159;82;21000;-66
2021/12/13 17:59:09;;;;;;;36.20;22.05;;;;;;;1.77;81.71;100746.17;1731866;82;21032;-66
2021/12/13 18:01:47;;;;;;;38.20;23.02;;;;;;;1.75;81.68;100746.69;1766579;81;21825;-66
2021/12/13 18:04:25;;;;;;;40.58;23.35;;;;;;;1.76;81.69;100748.83;1732540;82;20989;-66
2021/12/13 18:06:59;;;;;;;35.83;23.73;;;;;;;1.77;81.72;100748.77;1744473;81;20997;-66
2021/12/13 18:09:48;;;;;;;35.17;21.57;;;;;;;1.76;81.71;100751.44;1741578;80;20947;-66
2021/12/13 18:12:35;;;;;;;35.45;23.10;;;;;;;1.76;81.72;100752.73;1689400;84;20950;-66
2021/12/13 18:15:20;;;;;;;34.58;21.50;;;;;;;1.70;81.63;100748.14;1738180;80;22684;-67
2021/12/13 18:18:02;;;;;;;38.63;23.75;;;;;;;1.69;81.65;100753.41;1742648;80;20944;-66
2021/12/13 18:20:55;;;;;;;30.00;20.97;;;;;;;1.69;81.70;100752.11;1696679;84;21027;-67
2021/12/13 18:23:41;;;;;;;37.17;22.37;;;;;;;1.69;81.74;100743.84;1702590;84;21025;-67
2021/12/13 18:26:17;;;;;;;36.40;22.02;;;;;;;1.67;81.73;100749.56;1731134;80;20957;-68
2021/12/13 18:29:04;;;;;;;40.67;23.05;;;;;;;1.68;81.79;100743.45;1748347;81;21811;-67
2021/12/13 18:31:37;;;;;;;37.73;22.07;;;;;;;1.67;81.75;100744.36;1738609;81;21012;-66
2021/12/13 18:34:10;;;;;;;;;;;;;;;1.67;81.79;100746.11;1741708;82;21020;-68
2021/12/13 18:36:44;;;;;;;35.08;20.97;;;;;;;1.66;81.76;100745.27;1739435;82;21086;-66
2021/12/13 18:39:17;;;;;;;35.43;22.42;;;;;;;1.64;81.78;100749.69;1723252;83;21567;-67
2021/12/13 18:41:50;;;;;;;36.73;22.58;;;;;;;1.48;82.14;100745.93;1722544;83;21908;-66
2021/12/13 18:44:35;;;;;;;38.30;24.03;;;;;;;1.42;82.29;100744.38;1723684;82;20945;-66
2021/12/13 18:47:08;;;;;;;43.08;22.93;;;;;;;1.57;82.02;100739.55;1709316;81;21746;-66
2021/12/13 18:49:41;;;;;;;36.80;23.73;;;;;;;1.61;81.97;100739.81;1723190;83;21065;-66
2021/12/13 18:52:22;;;;;;;37.98;23.47;;;;;;;1.62;81.93;100735.84;1723325;83;21018;-65
2021/12/13 18:54:55;;;;;;;35.83;22.85;;;;;;;1.65;81.92;100737.52;1719836;83;21865;-67
2021/12/13 18:57:39;;;;;;;36.30;22.20;;;;;;;1.66;81.89;100738.75;1721910;83;21012;-67
2021/12/13 19:00:14;;;;;;;38.00;23.20;;;;;;;1.66;81.89;100738.75;1706594;83;21545;-66
2021/12/13 19:02:54;;;;;;;32.93;19.52;;;;;;;1.67;81.94;100733.94;1715764;82;21087;-72
2021/12/13 19:05:35;;;;;;;33.13;20.95;;;;;;;1.69;81.95;100736.03;1710355;83;21081;-70
2021/12/13 19:08:23;;;;;;;33.33;20.68;;;;;;;1.69;81.92;100729.52;1719961;83;21835;-69
2021/12/13 19:11:11;;;;;;;29.18;20.10;;;;;;;1.69;81.92;100729.52;1688972;83;21082;-70
2021/12/13 19:13:44;;;;;;;31.73;21.20;;;;;;;1.71;81.92;100728.16;1700896;83;20948;-70
2021/12/13 19:16:18;;;;;;;35.50;24.25;;;;;;;1.70;81.90;100724.70;1729095;82;21050;-68
2021/12/13 19:18:58;;;;;;;38.53;25.68;;;;;;;1.70;81.85;100719.50;1688188;85;21031;-69
2021/12/13 19:21:43;;;;;;;38.67;25.92;;;;;;;1.69;81.89;100725.61;1706162;83;21867;-69
2021/12/13 19:24:42;;;;;;;36.50;24.90;;;;;;;1.70;81.91;100723.41;1703358;83;21009;-66
2021/12/13 19:27:43;;;;;;;34.65;22.87;;;;;;;1.73;81.90;100730.24;1725710;82;21055;-67
2021/12/13 19:30:20;;;;;;;35.30;20.95;;;;;;;1.74;81.92;100725.45;1707210;82;21098;-67
2021/12/13 19:33:12;;;;;;;35.55;22.67;;;;;;;1.68;81.82;100730.43;1711710;82;21113;-70
2021/12/13 19:35:49;;;;;;;34.55;24.50;;;;;;;1.64;81.82;100727.55;1714405;83;21827;-71
2021/12/13 19:38:29;;;;;;;42.33;27.98;;;;;;;1.63;81.79;100723.68;1675788;82;21392;-70
2021/12/13 19:41:05;;;;;;;39.48;28.05;;;;;;;1.62;81.81;100732.40;1719730;82;20995;-72
2021/12/13 19:43:43;;;;;;;39.60;25.55;;;;;;;1.63;81.87;100738.00;1704680;81;21129;-70
2021/12/13 19:46:11;;;;;;;34.78;23.55;;;;;;;1.64;81.87;100741.87;1693159;83;21467;-69
2021/12/13 19:48:52;;;;;;;31.65;20.57;;;;;;;1.64;81.81;100739.70;1715423;83;21798;-67
2021/12/13 19:51:27;;;;;;;31.60;20.00;;;;;;;1.63;81.77;100739.30;1718830;82;21498;-69
2021/12/13 19:54:04;;;;;;;29.40;19.52;;;;;;;1.61;81.67;100745.87;1716156;82;21089;-69
2021/12/13 19:56:48;;;;;;;31.82;19.87;;;;;;;1.59;81.61;100748.14;1704429;84;21214;-69
2021/12/13 19:59:22;;;;;;;34.75;20.97;;;;;;;1.56;81.63;100746.51;1702946;82;27818;-69
2021/12/13 20:02:03;;;;;;;31.60;19.57;;;;;;;1.56;81.66;100745.20;1722897;82;22136;-70
2021/12/13 20:04:50;;;;;;;33.15;19.85;;;;;;;1.57;81.65;100746.05;1691445;83;21067;-68
2021/12/13 20:07:35;;;;;;;32.20;19.27;;;;;;;1.58;81.64;100749.90;1716426;82;21052;-69
2021/12/13 20:10:32;;;;;;;28.20;18.30;;;;;;;1.57;81.61;100756.02;1716802;81;21447;-70
2021/12/13 20:13:10;;;;;;;25.43;18.67;;;;;;;1.57;81.62;100755.17;1716120;83;21032;-69
2021/12/13 20:15:45;;;;;;;26.42;18.42;;;;;;;1.57;81.65;100756.02;1730812;79;21864;-67
2021/12/13 20:18:16;;;;;;;23.75;17.30;;;;;;;1.58;81.65;100755.56;1748365;80;21457;-70
2021/12/13 20:21:00;;;;;;;25.68;17.65;;;;;;;1.60;81.67;100761.09;1760570;79;21051;-73
2021/12/13 20:23:32;;;;;;;25.40;17.27;;;;;;;1.57;81.58;100766.42;1770668;79;20993;-71
2021/12/13 20:26:04;;;;;;;24.80;17.40;;;;;;;1.55;81.53;100770.00;1739308;81;20902;-71
2021/12/13 20:28:41;;;;;;;24.18;16.17;;;;;;;1.51;81.49;100777.05;1700064;81;21052;-72
2021/12/13 20:31:40;;;;;;;25.62;17.10;;;;;;;1.51;81.50;100780.95;1738688;82;20939;-72
2021/12/13 20:34:21;;;;;;;26.82;17.95;;;;;;;1.51;81.51;100777.50;1705212;84;20965;-74
2021/12/13 20:36:54;;;;;;;25.65;17.98;;;;;;;1.49;81.53;100774.95;1738829;82;20957;-71
2021/12/13 20:39:39;;;;;;;27.93;18.57;;;;;;;1.50;81.51;100774.05;1736773;80;21460;-70
2021/12/13 20:42:20;;;;;;;28.30;19.02;;;;;;;1.47;81.42;100772.02;1766841;79;22550;-73
2021/12/13 20:44:55;;;;;;;29.48;18.67;;;;;;;1.47;81.42;100773.32;1761216;80;20945;-75
2021/12/13 20:47:26;;;;;;;32.15;19.55;;;;;;;1.44;81.44;100777.70;1768841;80;21073;-72
2021/12/13 20:49:53;;;;;;;31.82;18.98;;;;;;;1.42;81.44;100770.86;1777498;79;21047;-72
2021/12/13 20:52:36;;;;;;;30.17;18.98;;;;;;;1.43;81.45;100756.48;1794448;79;20996;-69
2021/12/13 20:55:27;;;;;;;29.60;19.17;;;;;;;1.44;81.49;100766.45;1774306;80;22306;-69
2021/12/13 20:58:20;;;;;;;30.88;19.27;;;;;;;1.44;81.47;100765.99;1707720;83;20956;-71
2021/12/13 21:01:03;;;;;;;27.60;17.67;;;;;;;1.44;81.50;100760.79;1725281;82;20974;-73
2021/12/13 21:03:38;;;;;;;26.68;17.70;;;;;;;1.47;81.48;100765.06;1745088;81;21008;-73
2021/12/13 21:06:17;;;;;;;25.50;17.70;;;;;;;1.45;81.44;100760.37;1740020;81;20913;-69
2021/12/13 21:08:47;;;;;;;23.00;15.80;;;;;;;1.43;81.43;100756.94;1699175;83;21842;-71
2021/12/13 21:11:30;;;;;;;23.30;16.37;;;;;;;1.39;81.38;100747.11;1674865;84;21539;-70
2021/12/13 21:14:00;;;;;;;21.95;16.42;;;;;;;1.37;81.41;100752.83;1670924;84;20976;-70
2021/12/13 21:16:37;;;;;;;21.60;15.80;;;;;;;1.38;81.42;100755.82;1685655;84;21025;-69
2021/12/13 21:19:13;;;;;;;25.02;15.65;;;;;;;1.39;81.44;100764.02;1668600;84;21031;-69
2021/12/13 21:21:49;;;;;;;24.07;15.93;;;;;;;1.39;81.49;100764.02;1698970;83;21849;-69
2021/12/13 21:24:26;;;;;;;23.80;14.90;;;;;;;1.40;81.48;100764.41;1697628;84;21005;-70
2021/12/13 21:26:56;;;;;;;23.00;15.25;;;;;;;1.41;81.44;100760.06;1758434;81;21026;-70
2021/12/13 21:29:25;;;;;;;24.37;15.32;;;;;;;1.43;81.43;100773.86;1755620;81;21032;-70
2021/12/13 21:32:11;;;;;;;24.10;15.13;;;;;;;1.43;81.43;100767.36;1752432;82;20948;-69
2021/12/13 21:34:52;;;;;;;20.70;15.03;;;;;;;1.46;81.42;100775.53;1750932;81;22479;-70
2021/12/13 21:40:13;;;;;;;23.30;15.60;;;;;;;1.46;81.40;100767.27;1744307;82;21066;-69
2021/12/13 21:42:41;;;;;;;24.57;16.42;;;;;;;1.45;81.39;100765.58;1755587;81;20952;-69
2021/12/13 21:45:43;;;;;;;22.05;16.10;;;;;;;1.45;81.41;100761.67;1695531;84;21011;-70
2021/12/13 21:48:32;;;;;;;22.73;16.02;;;;;;;1.44;81.33;100760.79;1696828;83;21819;-70
2021/12/13 21:51:10;;;;;;;25.10;16.52;;;;;;;1.41;81.27;100760.06;1699933;83;20958;-70
2021/12/13 21:54:09;;;;;;;23.00;16.45;;;;;;;1.39;81.30;100747.56;1701394;84;21027;-70
2021/12/13 21:56:40;;;;;;;24.95;16.30;;;;;;;1.36;81.25;100751.58;1704950;83;21052;-70
2021/12/13 21:59:14;;;;;;;22.32;16.48;;;;;;;1.32;81.23;100755.17;1739738;81;20950;-70
2021/12/13 22:01:46;;;;;;;23.75;16.00;;;;;;;1.31;81.29;100752.18;1757214;80;24493;-69
2021/12/13 22:04:21;;;;;;;21.87;14.78;;;;;;;1.32;81.31;100761.23;1767633;80;21000;-68
2021/12/13 22:06:59;;;;;;;21.10;15.15;;;;;;;1.34;81.33;100761.17;1746208;80;21008;-69
2021/12/13 22:09:31;;;;;;;19.15;13.68;;;;;;;1.34;81.34;100759.87;1778017;80;21092;-69
2021/12/13 22:12:02;;;;;;;17.62;13.38;;;;;;;1.35;81.34;100761.56;1770343;80;20940;-71
2021/12/13 22:14:34;;;;;;;18.98;14.15;;;;;;;1.31;81.25;100763.89;1782500;79;21498;-69
2021/12/13 22:17:09;;;;;;;20.40;15.18;;;;;;;1.27;81.28;100763.16;1752692;80;21030;-71
2021/12/13 22:19:53;;;;;;;18.98;13.68;;;;;;;1.28;81.34;100762.25;1777963;79;21009;-71
2021/12/13 22:22:24;;;;;;;19.32;14.90;;;;;;;1.29;81.37;100765.70;1760565;79;21015;-71
2021/12/13 22:25:04;;;;;;;18.90;13.98;;;;;;;1.30;81.34;100760.89;1750135;80;21489;-71
2021/12/13 22:27:35;;;;;;;18.12;13.93;;;;;;;1.31;81.30;100759.98;1757279;80;21842;-71
2021/12/13 22:30:11;;;;;;;16.70;13.03;;;;;;;1.33;81.29;100763.38;1782254;80;21405;-71
2021/12/13 22:32:42;;;;;;;19.40;14.85;;;;;;;1.33;81.30;100759.48;1767948;80;20959;-69
2021/12/13 22:35:12;;;;;;;17.50;13.50;;;;;;;1.31;81.22;100758.69;1767287;80;20983;-69
2021/12/13 22:37:47;;;;;;;21.42;14.60;;;;;;;1.31;81.28;100758.69;1783907;79;20990;-70
2021/12/13 22:40:23;;;;;;;20.05;14.07;;;;;;;1.34;81.27;100750.31;1768223;80;21753;-70
2021/12/13 22:42:55;;;;;;;17.90;14.23;;;;;;;1.36;81.26;100749.83;1745458;80;21394;-70
2021/12/13 22:45:22;;;;;;;20.15;15.00;;;;;;;1.36;81.28;100747.23;1760834;80;20987;-71
2021/12/13 22:47:49;;;;;;;19.60;13.88;;;;;;;1.37;81.23;100754.58;1783707;80;21438;-71
2021/12/13 22:50:21;;;;;;;19.10;14.15;;;;;;;1.37;81.22;100751.52;1768532;80;21670;-71
2021/12/13 22:52:48;;;;;;;19.60;14.10;;;;;;;1.35;81.22;100754.64;1754948;80;21851;-71
2021/12/13 22:55:23;;;;;;;20.43;14.63;;;;;;;1.36;81.23;100751.58;1753669;80;20993;-71
2021/12/13 22:57:52;;;;;;;19.05;13.93;;;;;;;1.37;81.26;100747.62;1756897;80;20943;-71
2021/12/13 23:00:42;;;;;;;18.02;14.73;;;;;;;1.39;81.25;100752.77;1781643;80;20948;-70
2021/12/13 23:03:13;;;;;;;21.60;13.90;;;;;;;1.39;81.24;100752.31;1779033;79;20933;-72
2021/12/13 23:05:43;;;;;;;20.80;14.55;;;;;;;1.38;81.24;100759.72;1807979;79;21776;-71
2021/12/13 23:08:10;;;;;;;17.05;13.62;;;;;;;1.39;81.24;100759.27;1775012;79;21385;-72
2021/12/13 23:10:53;;;;;;;16.73;13.30;;;;;;;1.39;81.26;100761.42;1769088;79;20980;-71
2021/12/13 23:16:07;;;;;;;18.80;13.55;;;;;;;1.39;81.25;100760.58;1778922;79;20945;-70
2021/12/13 23:18:35;;;;;;;18.75;14.58;;;;;;;1.39;81.24;100764.48;1797288;79;21802;-70
2021/12/13 23:21:03;;;;;;;19.05;13.70;;;;;;;1.38;81.17;100763.63;1806018;79;20969;-70
2021/12/13 23:23:29;;;;;;;18.98;14.38;;;;;;;1.38;81.13;100757.58;1768607;80;20984;-71
2021/12/13 23:25:56;;;;;;;17.42;13.58;;;;;;;1.36;81.10;100756.33;1764763;79;20961;-71
2021/12/13 23:28:28;;;;;;;18.12;12.95;;;;;;;1.36;81.09;100755.48;1756499;79;21100;-71
2021/12/13 23:30:57;;;;;;;17.70;13.55;;;;;;;1.35;81.09;100757.23;1747835;80;22674;-72
2021/12/13 23:33:29;;;;;;;17.95;12.60;;;;;;;1.35;81.11;100756.36;1776115;79;20984;-71
2021/12/13 23:36:20;;;;;;;16.73;12.75;;;;;;;1.34;81.05;100759.42;1736586;81;21021;-72
2021/12/13 23:46:57;;;;;;;25.00;21.30;;;;;;;1.21;80.99;100761.21;1754842;80;20946;-71
2021/12/13 23:49:21;;;;;;;25.15;20.02;;;;;;;1.20;81.00;100762.12;1737100;82;21002;-71
2021/12/13 23:51:47;;;;;;;22.90;18.48;;;;;;;1.21;81.04;100761.21;1740807;80;20957;-71
2021/12/13 23:54:14;;;;;;;24.40;19.77;;;;;;;1.23;81.08;100768.05;1715372;82;21000;-71
2021/12/13 23:56:40;;;;;;;26.45;20.10;;;;;;;1.23;81.10;100768.05;1740337;81;21822;-71
2021/12/13 23:59:08;;;;;;;25.88;19.07;;;;;;;1.25;81.12;100776.66;1707031;82;20942;-71
